Kittery, Maine
Current Conditions -  °F | °C
As of 8:58 AM on Monday 24 Nov 2014 (Local Time) from KPSM Reporting Station
Light Rain Light Rain  
Wind Chill: 54°   Ceiling: 400
Heat Index: 54°   Visibility: 2mi
Dew Point: 53°   Wind: 22mph
Humidity: 94%   Direction: 150°SSE
Pressure: 29.76"   Gusts: NA
Location:  43.09°N, 70.75°W
Report Text: KPSM 241358Z 15019KT 2SM -RA BR OVC004 12/11 A2976 RMK AO2A PK WND 16029/13 SLP081 P0001 T01240114
Loading
Personal Weather Stations






























Interactive Weather Map New forecast layout! Learn more

10-Day Weather Forecast

Advertisements
Track Severe Weather on mobile